createdAt,value
2023-04-18T00:02:04.367Z,29.87
2023-04-18T00:04:34.020Z,29.47
2023-04-18T00:07:02.061Z,29.45
2023-04-18T00:09:29.925Z,29.90
2023-04-18T00:11:57.720Z,29.76
2023-04-18T00:14:25.743Z,30.04
2023-04-18T00:16:54.957Z,29.89
2023-04-18T00:19:22.731Z,29.50
2023-04-18T00:21:53.114Z,29.78
2023-04-18T00:24:21.081Z,29.51
2023-04-18T00:26:49.197Z,29.52
2023-04-18T00:29:17.061Z,29.62
2023-04-18T00:31:44.898Z,29.87
2023-04-18T00:34:14.437Z,29.80
2023-04-18T00:36:42.451Z,29.61
2023-04-18T00:39:10.755Z,29.50
2023-04-18T00:41:38.544Z,29.71
2023-04-18T00:44:06.593Z,29.66
2023-04-18T00:46:34.462Z,29.84
2023-04-18T00:49:02.404Z,29.82
2023-04-18T00:51:32.100Z,29.70
2023-04-18T00:54:00.257Z,30.35
2023-04-18T00:56:28.508Z,29.93
2023-04-18T00:58:59.450Z,30.04
2023-04-18T01:01:27.458Z,30.69
2023-04-18T01:03:55.509Z,30.59
2023-04-18T01:06:23.660Z,30.23
2023-04-18T01:08:53.939Z,30.08
2023-04-18T01:11:21.904Z,30.65
2023-04-18T01:14:00.083Z,30.81
2023-04-18T01:16:29.703Z,30.33
2023-04-18T01:18:57.510Z,30.85
2023-04-18T01:21:26.932Z,30.85
2023-04-18T01:23:57.348Z,30.74
2023-04-18T01:26:26.968Z,31.18
2023-04-18T01:28:54.746Z,31.33
2023-04-18T01:31:22.678Z,31.65
2023-04-18T01:33:50.548Z,31.33
2023-04-18T01:36:18.426Z,31.60
2023-04-18T01:38:46.215Z,32.03
2023-04-18T01:41:14.171Z,31.92
2023-04-18T01:43:44.863Z,31.87
2023-04-18T01:46:12.854Z,32.52
2023-04-18T01:48:40.742Z,32.64
2023-04-18T01:51:08.610Z,32.43
2023-04-18T01:53:36.490Z,32.48
2023-04-18T01:56:04.443Z,32.34
2023-04-18T01:58:32.258Z,32.54
2023-04-18T02:01:01.588Z,32.54
2023-04-18T02:03:29.631Z,33.12
2023-04-18T02:05:57.723Z,32.73
2023-04-18T02:08:25.540Z,33.24
2023-04-18T02:10:53.413Z,33.18
2023-04-18T02:13:21.703Z,33.42
2023-04-18T02:15:49.568Z,33.07
2023-04-18T02:18:19.233Z,33.88
2023-04-18T02:20:47.752Z,33.72
2023-04-18T02:23:15.555Z,33.56
2023-04-18T02:25:43.558Z,33.45
2023-04-18T02:28:11.423Z,33.95
2023-04-18T02:30:39.378Z,33.54
2023-04-18T02:33:07.242Z,33.73
2023-04-18T02:35:38.279Z,33.73
2023-04-18T02:38:06.479Z,33.83
2023-04-18T02:40:34.292Z,34.24
2023-04-18T02:43:02.643Z,34.38
2023-04-18T02:45:30.454Z,34.45
2023-04-18T02:48:00.718Z,34.05
2023-04-18T02:50:29.089Z,34.08
2023-04-18T02:53:00.018Z,34.53
2023-04-18T02:55:38.274Z,34.17
2023-04-18T02:58:06.343Z,34.58
2023-04-18T03:00:37.068Z,34.66
2023-04-18T03:03:19.636Z,34.47
2023-04-18T03:05:56.337Z,34.50
2023-04-18T03:08:26.068Z,35.00
2023-04-18T03:10:56.317Z,34.89
2023-04-18T03:13:25.968Z,34.61
2023-04-18T03:15:53.982Z,34.93
2023-04-18T03:18:21.806Z,35.05
2023-04-18T03:20:50.760Z,35.10
2023-04-18T03:23:18.647Z,35.02
2023-04-18T03:25:48.359Z,35.07
2023-04-18T03:28:16.450Z,35.36
2023-04-18T03:30:44.291Z,34.85
2023-04-18T03:33:13.267Z,34.96
2023-04-18T03:35:41.705Z,35.33
2023-04-18T03:38:09.747Z,35.14
2023-04-18T03:40:40.353Z,35.09
2023-04-18T03:43:17.078Z,35.15
2023-04-18T03:45:47.233Z,35.63
2023-04-18T03:48:16.862Z,35.66
2023-04-18T03:50:46.530Z,35.27
2023-04-18T03:53:14.421Z,35.45
2023-04-18T03:55:43.383Z,35.83
2023-04-18T03:58:13.349Z,35.88
2023-04-18T04:00:42.886Z,35.77
2023-04-18T04:03:12.182Z,35.81
2023-04-18T04:05:41.140Z,35.88
2023-04-18T04:08:09.005Z,35.62
2023-04-18T04:10:37.124Z,35.48
2023-04-18T04:13:05.053Z,35.63
2023-04-18T04:15:37.349Z,35.81
2023-04-18T04:18:09.118Z,35.78
2023-04-18T04:20:40.224Z,35.89
2023-04-18T04:23:15.165Z,36.23
2023-04-18T04:25:46.514Z,35.78
2023-04-18T04:28:26.221Z,35.70
2023-04-18T04:30:59.988Z,36.02
2023-04-18T04:33:29.904Z,36.08
2023-04-18T04:36:02.214Z,36.33
2023-04-18T04:38:33.236Z,36.42
2023-04-18T04:41:01.522Z,36.08
2023-04-18T04:43:30.807Z,36.44
2023-04-18T04:45:59.057Z,36.18
2023-04-18T04:48:27.077Z,36.65
2023-04-18T04:50:57.983Z,36.70
2023-04-18T04:53:27.958Z,36.13
2023-04-18T04:55:55.932Z,36.65
2023-04-18T04:58:24.188Z,36.40
2023-04-18T05:01:03.066Z,36.04
2023-04-18T05:03:33.179Z,36.23
2023-04-18T05:06:02.579Z,36.22
2023-04-18T05:08:30.409Z,36.19
2023-04-18T05:10:58.216Z,36.65
2023-04-18T05:13:25.970Z,36.40
2023-04-18T05:15:53.812Z,36.78
2023-04-18T05:18:21.871Z,36.23
2023-04-18T05:20:49.674Z,36.50
2023-04-18T05:23:18.794Z,36.90
2023-04-18T05:25:46.646Z,36.50
2023-04-18T05:28:14.497Z,36.43
2023-04-18T05:30:42.382Z,36.94
2023-04-18T05:33:10.413Z,36.76
2023-04-18T05:35:38.308Z,36.74
2023-04-18T05:38:06.302Z,36.96
2023-04-18T05:40:35.557Z,36.98
2023-04-18T05:43:03.414Z,37.05
2023-04-18T05:45:31.376Z,37.01
2023-04-18T05:47:59.335Z,36.87
2023-04-18T05:50:27.237Z,36.93
2023-04-18T05:52:55.032Z,36.75
2023-04-18T05:55:22.858Z,36.64
2023-04-18T05:57:52.106Z,37.04
2023-04-18T06:00:20.726Z,36.71
2023-04-18T06:02:49.674Z,37.21
2023-04-18T06:05:18.127Z,36.82
2023-04-18T06:07:46.030Z,37.26
2023-04-18T06:10:13.885Z,36.73
2023-04-18T06:12:41.728Z,37.18
2023-04-18T06:15:12.490Z,37.42
2023-04-18T06:17:40.453Z,37.33
2023-04-18T06:20:09.042Z,37.10
2023-04-18T06:22:36.896Z,37.01
2023-04-18T06:25:05.017Z,37.36
2023-04-18T06:27:32.834Z,37.44
2023-04-18T06:30:00.627Z,36.96
2023-04-18T06:32:29.940Z,37.29
2023-04-18T06:34:57.885Z,36.83
2023-04-18T06:37:25.892Z,36.74
2023-04-18T06:39:53.841Z,37.05
2023-04-18T06:42:22.668Z,36.27
2023-04-18T06:44:50.778Z,36.70
2023-04-18T06:47:18.771Z,36.31
2023-04-18T06:49:48.187Z,36.13
2023-04-18T06:52:16.112Z,36.13
2023-04-18T06:54:43.963Z,36.54
2023-04-18T06:57:12.055Z,35.97
2023-04-18T06:59:41.327Z,36.30
2023-04-18T07:02:09.676Z,36.54
2023-04-18T07:04:37.558Z,35.96
2023-04-18T07:07:06.778Z,36.17
2023-04-18T07:09:34.611Z,35.82
2023-04-18T07:12:02.595Z,35.70
2023-04-18T07:14:31.746Z,35.62
2023-04-18T07:17:01.688Z,36.17
2023-04-18T07:19:29.571Z,36.11
2023-04-18T07:21:57.770Z,35.80
2023-04-18T07:24:27.042Z,35.28
2023-04-18T07:26:55.282Z,34.91
2023-04-18T07:29:23.268Z,34.57
2023-04-18T07:31:51.202Z,34.47
2023-04-18T07:34:19.050Z,34.30
2023-04-18T07:36:46.917Z,33.79
2023-04-18T07:39:14.814Z,33.90
2023-04-18T07:41:44.101Z,34.10
2023-04-18T07:44:11.976Z,34.10
2023-04-18T07:46:40.202Z,33.83
2023-04-18T07:49:08.111Z,34.18
2023-04-18T07:51:36.030Z,34.21
2023-04-18T07:54:03.944Z,34.48
2023-04-18T07:56:31.834Z,34.60
2023-04-18T07:59:01.696Z,34.22
2023-04-18T08:01:29.596Z,34.97
2023-04-18T08:04:02.039Z,34.73
2023-04-18T08:06:30.878Z,34.94
2023-04-18T08:09:03.134Z,35.28
2023-04-18T08:11:31.249Z,35.00
2023-04-18T08:13:59.238Z,35.17
2023-04-18T08:16:29.494Z,35.46
2023-04-18T08:18:57.410Z,35.15
2023-04-18T08:21:26.841Z,35.65
2023-04-18T08:23:54.763Z,35.74
2023-04-18T08:26:22.929Z,35.20
2023-04-18T08:28:51.152Z,35.41
2023-04-18T08:31:19.230Z,35.83
2023-04-18T08:33:48.631Z,35.73
2023-04-18T08:36:16.654Z,35.70
2023-04-18T08:38:44.555Z,36.26
2023-04-18T08:41:12.701Z,35.74
2023-04-18T08:43:40.642Z,36.05
2023-04-18T08:46:09.137Z,36.18
2023-04-18T08:48:37.288Z,36.34
2023-04-18T08:51:07.037Z,36.62
2023-04-18T08:53:35.257Z,36.43
2023-04-18T08:56:05.411Z,36.33
2023-04-18T08:58:34.809Z,36.20
2023-04-18T09:01:03.022Z,36.19
2023-04-18T09:03:39.804Z,36.93
2023-04-18T09:06:12.516Z,36.34
2023-04-18T09:08:43.246Z,36.21
2023-04-18T09:11:28.915Z,36.32
2023-04-18T09:13:59.639Z,36.40
2023-04-18T09:16:29.318Z,36.29
2023-04-18T09:19:14.297Z,36.91
2023-04-18T09:21:46.251Z,36.54
2023-04-18T09:24:24.441Z,37.16
2023-04-18T09:26:53.859Z,36.95
2023-04-18T09:29:23.510Z,36.49
2023-04-18T09:32:01.113Z,36.94
2023-04-18T09:34:30.141Z,37.20
2023-04-18T09:37:10.265Z,36.84
2023-04-18T09:39:39.465Z,37.07
2023-04-18T09:42:07.926Z,37.14
2023-04-18T09:44:35.987Z,36.95
2023-04-18T09:47:03.870Z,37.13
2023-04-18T09:49:31.877Z,37.70
2023-04-18T09:52:02.605Z,37.43
2023-04-18T09:54:34.054Z,38.06
2023-04-18T09:57:04.931Z,37.87
2023-04-18T09:59:42.590Z,37.71
2023-04-18T10:02:16.885Z,38.17
2023-04-18T10:04:47.645Z,37.96
2023-04-18T10:07:17.438Z,37.79
2023-04-18T10:09:48.282Z,37.54
2023-04-18T10:12:18.146Z,37.51
2023-04-18T10:14:46.521Z,37.42
2023-04-18T10:17:15.622Z,37.67
2023-04-18T10:19:46.132Z,37.88
2023-04-18T10:22:14.250Z,37.75
2023-04-18T10:24:53.735Z,37.67
2023-04-18T10:27:59.472Z,38.03
2023-04-18T10:30:53.555Z,37.75
2023-04-18T10:33:30.451Z,38.05
2023-04-18T10:36:16.146Z,37.87
2023-04-18T10:38:49.639Z,37.87
2023-04-18T10:41:27.534Z,37.78
2023-04-18T10:44:23.816Z,37.34
2023-04-18T10:47:32.018Z,37.36
2023-04-18T10:50:06.256Z,37.86
2023-04-18T10:52:35.680Z,37.54
2023-04-18T10:55:16.469Z,37.07
2023-04-18T10:57:47.590Z,37.32
2023-04-18T11:00:18.495Z,36.93
2023-04-18T11:02:51.721Z,37.29
2023-04-18T11:05:21.724Z,37.29
2023-04-18T11:07:49.787Z,37.16
2023-04-18T11:10:20.183Z,36.44
2023-04-18T11:12:49.615Z,36.46
2023-04-18T11:15:21.660Z,36.30
2023-04-18T11:18:01.525Z,36.66
2023-04-18T11:20:29.923Z,36.83
2023-04-18T11:22:59.818Z,36.16
2023-04-18T11:25:29.536Z,36.40
2023-04-18T11:28:02.020Z,35.95
2023-04-18T11:30:36.971Z,36.25
2023-04-18T11:33:07.462Z,36.58
2023-04-18T11:35:39.590Z,36.19
2023-04-18T11:38:07.806Z,36.64
2023-04-18T11:40:36.563Z,36.22
2023-04-18T11:43:08.064Z,36.22
2023-04-18T11:45:36.117Z,36.24
2023-04-18T11:48:04.316Z,36.46
2023-04-18T11:50:36.987Z,36.32
2023-04-18T11:53:04.897Z,36.47
2023-04-18T11:55:33.190Z,36.49
2023-04-18T11:58:05.226Z,37.03
2023-04-18T12:00:37.099Z,37.08
2023-04-18T12:03:07.886Z,36.95
2023-04-18T12:05:38.303Z,36.92
2023-04-18T12:08:08.321Z,37.18
2023-04-18T12:10:36.994Z,37.35
2023-04-18T12:13:08.024Z,37.32
2023-04-18T12:15:40.380Z,37.16
2023-04-18T12:18:09.538Z,37.34
2023-04-18T12:20:38.889Z,36.90
2023-04-18T12:23:08.013Z,37.20
2023-04-18T12:25:36.530Z,36.47
2023-04-18T12:28:14.416Z,36.75
2023-04-18T12:30:43.787Z,36.54
2023-04-18T12:33:12.541Z,36.30
2023-04-18T12:35:40.628Z,36.40
2023-04-18T12:38:08.507Z,36.59
2023-04-18T12:40:36.421Z,36.50
2023-04-18T12:43:04.329Z,36.37
2023-04-18T12:45:32.279Z,35.89
2023-04-18T12:48:01.676Z,35.99
2023-04-18T12:50:29.834Z,36.05
2023-04-18T12:53:00.448Z,36.15
2023-04-18T12:55:28.904Z,36.17
2023-04-18T12:57:58.093Z,35.95
2023-04-18T13:00:27.837Z,36.39
2023-04-18T13:02:55.860Z,36.09
2023-04-18T13:05:28.673Z,36.44
2023-04-18T13:08:15.209Z,36.28
2023-04-18T13:10:44.699Z,36.53
2023-04-18T13:13:12.652Z,36.65
2023-04-18T13:15:40.647Z,36.36
2023-04-18T13:18:08.824Z,36.40
2023-04-18T13:20:38.293Z,36.61
2023-04-18T13:23:06.290Z,36.49
2023-04-18T13:25:34.276Z,36.57
2023-04-18T13:28:02.234Z,36.46
2023-04-18T13:30:30.188Z,36.98
2023-04-18T13:32:58.399Z,36.58
2023-04-18T13:35:26.453Z,36.68
2023-04-18T13:37:56.096Z,36.75
2023-04-18T13:40:24.298Z,36.47
2023-04-18T13:42:52.506Z,36.84
2023-04-18T13:45:20.537Z,36.63
2023-04-18T13:47:48.568Z,36.55
2023-04-18T13:50:16.496Z,36.53
2023-04-18T13:52:44.704Z,35.98
2023-04-18T13:55:14.012Z,36.26
2023-04-18T13:57:41.934Z,35.78
2023-04-18T14:00:13.777Z,35.98
2023-04-18T14:02:41.969Z,35.96
2023-04-18T14:05:10.765Z,35.93
2023-04-18T14:07:39.318Z,35.68
2023-04-18T14:10:08.389Z,35.87
2023-04-18T14:12:37.770Z,35.69
2023-04-18T14:15:06.912Z,35.77
2023-04-18T14:17:35.111Z,36.09
2023-04-18T14:20:03.394Z,35.60
2023-04-18T14:22:31.451Z,35.39
2023-04-18T14:24:59.362Z,35.36
2023-04-18T14:27:27.777Z,35.23
2023-04-18T14:29:57.077Z,35.19
2023-04-18T14:32:25.255Z,35.69
2023-04-18T14:34:53.477Z,35.83
2023-04-18T14:37:22.300Z,35.20
2023-04-18T14:39:50.637Z,35.15
2023-04-18T14:42:18.992Z,35.38
2023-04-18T14:44:48.082Z,35.18
2023-04-18T14:47:17.636Z,35.49
2023-04-18T14:49:45.572Z,35.48
2023-04-18T14:52:14.404Z,35.23
2023-04-18T14:54:44.351Z,35.00
2023-04-18T14:57:12.951Z,35.10
2023-04-18T14:59:40.900Z,35.08
2023-04-18T15:02:09.045Z,35.18
2023-04-18T15:04:38.514Z,34.73
2023-04-18T15:07:06.939Z,35.10
2023-04-18T15:09:37.407Z,34.56
2023-04-18T15:12:06.241Z,34.73
2023-04-18T15:14:34.967Z,34.36
2023-04-18T15:17:03.280Z,34.51
2023-04-18T15:19:32.434Z,34.39
2023-04-18T15:22:03.950Z,34.36
2023-04-18T15:24:31.955Z,34.16
2023-04-18T15:27:00.043Z,34.31
2023-04-18T15:29:28.068Z,34.44
2023-04-18T15:31:56.130Z,34.25
2023-04-18T15:34:24.116Z,34.23
2023-04-18T15:36:52.001Z,34.42
2023-04-18T15:39:23.653Z,34.28
2023-04-18T15:41:54.233Z,33.94
2023-04-18T15:44:22.263Z,34.46
2023-04-18T15:46:51.083Z,34.30
2023-04-18T15:49:19.058Z,33.97
2023-04-18T15:51:47.086Z,33.83
2023-04-18T15:54:15.329Z,34.17
2023-04-18T15:56:45.034Z,34.12
2023-04-18T15:59:13.691Z,33.75
2023-04-18T16:01:43.335Z,34.26
2023-04-18T16:04:13.425Z,34.21
2023-04-18T16:06:41.527Z,33.77
2023-04-18T16:09:09.891Z,34.14
2023-04-18T16:11:37.790Z,34.16
2023-04-18T16:14:07.108Z,33.90
2023-04-18T16:16:35.385Z,34.16
2023-04-18T16:19:04.492Z,34.05
2023-04-18T16:21:32.552Z,33.58
2023-04-18T16:24:00.489Z,34.02
2023-04-18T16:26:28.942Z,33.94
2023-04-18T16:28:57.026Z,33.71
2023-04-18T16:31:26.419Z,33.71
2023-04-18T16:33:54.416Z,34.13
2023-04-18T16:36:22.377Z,34.06
2023-04-18T16:38:50.488Z,33.79
2023-04-18T16:41:18.459Z,34.20
2023-04-18T16:43:46.523Z,34.19
2023-04-18T16:46:14.792Z,34.26
2023-04-18T16:48:45.226Z,34.27
2023-04-18T16:51:13.190Z,33.85
2023-04-18T16:53:41.133Z,34.05
2023-04-18T16:56:09.221Z,34.16
2023-04-18T16:58:37.087Z,34.35
2023-04-18T17:01:05.330Z,34.34
2023-04-18T17:03:33.476Z,33.81
2023-04-18T17:06:03.010Z,34.00
2023-04-18T17:08:32.870Z,34.49
2023-04-18T17:11:02.261Z,33.93
2023-04-18T17:13:31.488Z,34.46
2023-04-18T17:15:59.557Z,34.25
2023-04-18T17:18:27.480Z,34.34
2023-04-18T17:20:55.393Z,34.07
2023-04-18T17:23:24.758Z,34.58
2023-04-18T17:25:52.799Z,34.62
2023-04-18T17:28:21.240Z,34.62
2023-04-18T17:30:50.263Z,34.76
2023-04-18T17:33:18.264Z,34.28
2023-04-18T17:35:46.221Z,34.64
2023-04-18T17:38:14.254Z,34.78
2023-04-18T17:40:43.579Z,34.22
2023-04-18T17:43:12.256Z,34.26
2023-04-18T17:45:40.440Z,34.48
2023-04-18T17:48:08.382Z,34.25
2023-04-18T17:50:38.033Z,34.71
2023-04-18T17:53:06.155Z,34.85
2023-04-18T17:55:34.070Z,34.77
2023-04-18T17:58:03.353Z,34.43
2023-04-18T18:00:31.766Z,34.48
2023-04-18T18:03:01.398Z,34.61
2023-04-18T18:05:30.213Z,34.80
2023-04-18T18:07:58.604Z,34.91
2023-04-18T18:10:27.020Z,34.89
2023-04-18T18:12:54.960Z,34.52
2023-04-18T18:15:25.289Z,35.02
2023-04-18T18:17:53.362Z,34.85
2023-04-18T18:20:21.560Z,34.86
2023-04-18T18:22:49.760Z,35.38
2023-04-18T18:25:17.782Z,35.42
2023-04-18T18:27:45.766Z,35.39
2023-04-18T18:30:14.333Z,35.44
2023-04-18T18:32:43.889Z,35.54
2023-04-18T18:35:11.850Z,35.54
2023-04-18T18:37:40.864Z,35.33
2023-04-18T18:40:10.219Z,35.26
2023-04-18T18:42:38.094Z,35.39
2023-04-18T18:45:07.531Z,35.20
2023-04-18T18:47:37.477Z,35.45
2023-04-18T18:50:09.003Z,35.30
2023-04-18T18:52:36.970Z,35.31
2023-04-18T18:55:05.402Z,35.50
2023-04-18T18:57:34.285Z,35.68
2023-04-18T19:00:02.410Z,35.38
2023-04-18T19:02:30.576Z,35.77
2023-04-18T19:04:59.072Z,35.45
2023-04-18T19:07:29.947Z,35.48
2023-04-18T19:10:00.474Z,35.90
2023-04-18T19:12:29.143Z,35.56
2023-04-18T19:14:57.354Z,35.77
2023-04-18T19:17:25.757Z,36.11
2023-04-18T19:19:57.900Z,36.07
2023-04-18T19:22:25.947Z,36.04
2023-04-18T19:24:55.251Z,36.28
2023-04-18T19:27:24.018Z,35.87
2023-04-18T19:29:51.995Z,36.19
2023-04-18T19:32:20.565Z,36.12
2023-04-18T19:34:48.798Z,36.25
2023-04-18T19:37:16.884Z,35.92
2023-04-18T19:39:44.832Z,36.03
2023-04-18T19:42:14.288Z,36.03
2023-04-18T19:44:42.320Z,36.00
2023-04-18T19:47:10.242Z,35.96
2023-04-18T19:49:38.218Z,36.32
2023-04-18T19:52:06.543Z,36.42
2023-04-18T19:54:34.470Z,36.41
2023-04-18T19:57:04.582Z,36.17
2023-04-18T19:59:33.896Z,36.34
2023-04-18T20:02:05.087Z,36.52
2023-04-18T20:04:36.534Z,36.66
2023-04-18T20:07:04.718Z,36.91
2023-04-18T20:09:32.729Z,36.60
2023-04-18T20:12:01.942Z,36.30
2023-04-18T20:14:30.153Z,36.77
2023-04-18T20:16:59.427Z,36.99
2023-04-18T20:19:29.775Z,36.83
2023-04-18T20:21:57.785Z,37.05
2023-04-18T20:24:28.036Z,36.54
2023-04-18T20:26:57.205Z,36.98
2023-04-18T20:29:25.390Z,36.71
2023-04-18T20:31:53.371Z,36.84
2023-04-18T20:34:22.875Z,37.12
2023-04-18T20:36:52.474Z,36.82
2023-04-18T20:39:20.588Z,36.82
2023-04-18T20:41:51.515Z,36.88
2023-04-18T20:44:20.990Z,37.10
2023-04-18T20:46:49.011Z,36.80
2023-04-18T20:49:17.170Z,36.72
2023-04-18T20:51:46.574Z,36.92
2023-04-18T20:54:14.802Z,37.27
2023-04-18T20:56:42.985Z,36.83
2023-04-18T20:59:10.908Z,36.91
2023-04-18T21:01:38.860Z,36.84
2023-04-18T21:04:07.097Z,36.82
2023-04-18T21:06:35.068Z,37.05
2023-04-18T21:09:04.668Z,37.12
2023-04-18T21:11:32.657Z,36.79
2023-04-18T21:14:00.686Z,37.02
2023-04-18T21:16:28.687Z,36.92
2023-04-18T21:18:56.620Z,36.72
2023-04-18T21:21:25.567Z,36.62
2023-04-18T21:23:53.540Z,37.19
2023-04-18T21:26:23.304Z,36.70
2023-04-18T21:28:58.199Z,37.21
2023-04-18T21:31:27.154Z,37.06
2023-04-18T21:33:55.932Z,36.63
2023-04-18T21:36:26.406Z,36.84
2023-04-18T21:38:55.420Z,37.00
2023-04-18T21:41:25.280Z,37.19
2023-04-18T21:43:54.065Z,37.02
2023-04-18T21:46:22.134Z,36.83
2023-04-18T21:48:50.268Z,37.11
2023-04-18T21:51:18.416Z,37.19
2023-04-18T21:53:46.396Z,37.24
2023-04-18T21:56:14.333Z,36.81
2023-04-18T21:58:43.663Z,36.85
2023-04-18T22:01:11.890Z,37.27
2023-04-18T22:03:40.195Z,36.97
2023-04-18T22:06:08.662Z,37.41
2023-04-18T22:08:36.818Z,37.04
2023-04-18T22:11:05.131Z,37.08
2023-04-18T22:13:33.941Z,36.89
2023-04-18T22:16:04.053Z,37.45
2023-04-18T22:18:34.047Z,37.20
2023-04-18T22:21:02.381Z,37.08
2023-04-18T22:23:31.129Z,37.35
2023-04-18T22:25:59.186Z,37.19
2023-04-18T22:28:27.994Z,37.41
2023-04-18T22:30:56.191Z,37.41
2023-04-18T22:33:25.637Z,37.33
2023-04-18T22:35:54.202Z,37.32
2023-04-18T22:38:22.179Z,37.18
2023-04-18T22:40:50.123Z,37.29
2023-04-18T22:43:22.502Z,37.58
2023-04-18T22:45:50.964Z,37.56
2023-04-18T22:48:19.620Z,37.46
2023-04-18T22:50:49.724Z,37.60
2023-04-18T22:53:17.893Z,37.59
2023-04-18T22:55:46.248Z,37.43
2023-04-18T22:58:15.066Z,37.50
2023-04-18T23:00:43.946Z,37.10
2023-04-18T23:03:12.025Z,37.64
2023-04-18T23:05:41.025Z,37.69
2023-04-18T23:08:11.852Z,37.47
2023-04-18T23:10:39.961Z,37.67
2023-04-18T23:13:08.321Z,37.71
2023-04-18T23:15:36.597Z,37.21
2023-04-18T23:18:05.018Z,37.41
2023-04-18T23:20:33.162Z,37.25
2023-04-18T23:23:01.361Z,37.77
2023-04-18T23:25:33.408Z,37.54
2023-04-18T23:28:02.158Z,37.52
2023-04-18T23:30:30.232Z,37.85
2023-04-18T23:32:58.793Z,37.84
2023-04-18T23:35:27.155Z,37.79
2023-04-18T23:37:57.123Z,37.36
2023-04-18T23:40:25.455Z,37.52
2023-04-18T23:42:55.203Z,37.93
2023-04-18T23:45:24.315Z,37.64
2023-04-18T23:47:52.456Z,37.62
2023-04-18T23:50:21.438Z,37.67
2023-04-18T23:52:49.309Z,37.71
2023-04-18T23:55:19.263Z,38.00
2023-04-18T23:57:48.671Z,37.95
